sensor_id;sensor_type;location;lat;lon;timestamp;temperature;humidity
33460;DHT22;19795;53.160;6.612;2023-02-13T05:23:53;5.90;99.90
33460;DHT22;19795;53.160;6.612;2023-02-13T05:28:54;6.00;99.90
33460;DHT22;19795;53.160;6.612;2023-02-13T05:31:38;6.00;99.90
33460;DHT22;19795;53.160;6.612;2023-02-13T05:34:04;6.00;99.90
33460;DHT22;19795;53.160;6.612;2023-02-13T05:36:30;6.00;99.90
33460;DHT22;19795;53.160;6.612;2023-02-13T05:38:55;6.00;99.90
33460;DHT22;19795;53.160;6.612;2023-02-13T05:41:21;5.90;99.90
33460;DHT22;19795;53.160;6.612;2023-02-13T05:43:46;6.00;99.90
33460;DHT22;19795;53.160;6.612;2023-02-13T05:46:12;6.20;99.90
33460;DHT22;19795;53.160;6.612;2023-02-13T05:48:38;5.90;99.90
33460;DHT22;19795;53.160;6.612;2023-02-13T05:51:04;5.90;99.90
33460;DHT22;19795;53.160;6.612;2023-02-13T05:53:29;5.90;99.90
33460;DHT22;19795;53.160;6.612;2023-02-13T05:55:55;5.90;99.90
33460;DHT22;19795;53.160;6.612;2023-02-13T05:58:21;5.90;99.90
33460;DHT22;19795;53.160;6.612;2023-02-13T06:00:47;5.90;99.90
33460;DHT22;19795;53.160;6.612;2023-02-13T06:03:13;6.00;99.90
33460;DHT22;19795;53.160;6.612;2023-02-13T06:05:39;6.00;99.90
33460;DHT22;19795;53.160;6.612;2023-02-13T06:08:05;6.10;99.90
33460;DHT22;19795;53.160;6.612;2023-02-13T06:10:30;5.90;99.90
33460;DHT22;19795;53.160;6.612;2023-02-13T06:12:56;6.10;99.90
33460;DHT22;19795;53.160;6.612;2023-02-13T06:15:22;6.00;99.90
33460;DHT22;19795;53.160;6.612;2023-02-13T06:17:47;6.10;99.90
33460;DHT22;19795;53.160;6.612;2023-02-13T06:20:13;5.80;99.90
33460;DHT22;19795;53.160;6.612;2023-02-13T06:22:39;5.90;99.90
33460;DHT22;19795;53.160;6.612;2023-02-13T06:25:05;5.90;99.90
33460;DHT22;19795;53.160;6.612;2023-02-13T06:27:32;5.90;99.90
33460;DHT22;19795;53.160;6.612;2023-02-13T06:29:57;5.90;99.90
33460;DHT22;19795;53.160;6.612;2023-02-13T06:32:23;5.90;99.90
33460;DHT22;19795;53.160;6.612;2023-02-13T06:34:49;6.00;99.90
33460;DHT22;19795;53.160;6.612;2023-02-13T06:37:14;5.90;99.90
33460;DHT22;19795;53.160;6.612;2023-02-13T06:39:40;5.80;99.90
33460;DHT22;19795;53.160;6.612;2023-02-13T06:42:07;5.90;99.90
33460;DHT22;19795;53.160;6.612;2023-02-13T06:44:32;5.90;99.90
33460;DHT22;19795;53.160;6.612;2023-02-13T06:46:58;5.90;99.90
33460;DHT22;19795;53.160;6.612;2023-02-13T06:49:24;6.00;99.90
33460;DHT22;19795;53.160;6.612;2023-02-13T06:51:49;6.00;99.90
33460;DHT22;19795;53.160;6.612;2023-02-13T06:54:15;6.00;99.90
33460;DHT22;19795;53.160;6.612;2023-02-13T06:56:41;6.00;99.90
33460;DHT22;19795;53.160;6.612;2023-02-13T06:59:06;5.90;99.90
33460;DHT22;19795;53.160;6.612;2023-02-13T07:01:32;5.90;99.90
33460;DHT22;19795;53.160;6.612;2023-02-13T07:03:57;5.90;99.90
33460;DHT22;19795;53.160;6.612;2023-02-13T07:06:23;6.00;99.90
33460;DHT22;19795;53.160;6.612;2023-02-13T07:08:49;6.00;99.90
33460;DHT22;19795;53.160;6.612;2023-02-13T07:11:21;6.00;99.90
33460;DHT22;19795;53.160;6.612;2023-02-13T07:13:47;6.00;99.90
33460;DHT22;19795;53.160;6.612;2023-02-13T07:16:13;6.00;99.90
33460;DHT22;19795;53.160;6.612;2023-02-13T07:18:38;6.00;99.90
33460;DHT22;19795;53.160;6.612;2023-02-13T07:21:05;6.10;99.90
33460;DHT22;19795;53.160;6.612;2023-02-13T07:23:30;6.10;99.90
33460;DHT22;19795;53.160;6.612;2023-02-13T07:26:00;6.10;99.90
33460;DHT22;19795;53.160;6.612;2023-02-13T07:28:26;6.10;99.90
33460;DHT22;19795;53.160;6.612;2023-02-13T07:30:52;6.10;99.90
33460;DHT22;19795;53.160;6.612;2023-02-13T07:33:18;6.10;99.90
33460;DHT22;19795;53.160;6.612;2023-02-13T07:35:48;6.40;99.90
33460;DHT22;19795;53.160;6.612;2023-02-13T07:38:14;6.10;99.90
33460;DHT22;19795;53.160;6.612;2023-02-13T07:40:40;6.10;99.90
33460;DHT22;19795;53.160;6.612;2023-02-13T07:43:06;6.10;99.90
33460;DHT22;19795;53.160;6.612;2023-02-13T07:45:32;6.10;99.90
33460;DHT22;19795;53.160;6.612;2023-02-13T07:47:57;6.10;99.90
33460;DHT22;19795;53.160;6.612;2023-02-13T07:50:24;6.10;99.90
33460;DHT22;19795;53.160;6.612;2023-02-13T07:53:00;6.10;99.90
33460;DHT22;19795;53.160;6.612;2023-02-13T07:55:28;6.20;99.90
33460;DHT22;19795;53.160;6.612;2023-02-13T07:57:54;6.20;99.90
33460;DHT22;19795;53.160;6.612;2023-02-13T08:00:20;6.40;99.90
33460;DHT22;19795;53.160;6.612;2023-02-13T08:02:46;6.30;99.90
33460;DHT22;19795;53.160;6.612;2023-02-13T08:05:13;6.30;99.90
33460;DHT22;19795;53.160;6.612;2023-02-13T08:07:38;6.30;99.90
33460;DHT22;19795;53.160;6.612;2023-02-13T08:10:06;6.30;99.90
33460;DHT22;19795;53.160;6.612;2023-02-13T08:12:52;6.30;99.90
33460;DHT22;19795;53.160;6.612;2023-02-13T08:15:18;6.40;99.90
33460;DHT22;19795;53.160;6.612;2023-02-13T08:17:44;6.40;99.90
33460;DHT22;19795;53.160;6.612;2023-02-13T08:20:10;6.40;99.90
33460;DHT22;19795;53.160;6.612;2023-02-13T08:22:36;6.40;99.90
33460;DHT22;19795;53.160;6.612;2023-02-13T08:25:03;6.50;99.90
33460;DHT22;19795;53.160;6.612;2023-02-13T08:27:29;6.50;99.90
33460;DHT22;19795;53.160;6.612;2023-02-13T08:29:55;6.60;99.90
33460;DHT22;19795;53.160;6.612;2023-02-13T08:32:22;6.50;99.90
33460;DHT22;19795;53.160;6.612;2023-02-13T08:34:48;6.50;99.90
33460;DHT22;19795;53.160;6.612;2023-02-13T08:37:14;6.50;99.90
33460;DHT22;19795;53.160;6.612;2023-02-13T08:39:39;6.50;99.90
33460;DHT22;19795;53.160;6.612;2023-02-13T08:42:05;6.50;99.90
33460;DHT22;19795;53.160;6.612;2023-02-13T08:44:31;6.50;99.90
33460;DHT22;19795;53.160;6.612;2023-02-13T08:46:57;6.60;99.90
33460;DHT22;19795;53.160;6.612;2023-02-13T08:49:22;6.60;99.90
33460;DHT22;19795;53.160;6.612;2023-02-13T08:51:49;6.70;99.90
33460;DHT22;19795;53.160;6.612;2023-02-13T08:54:15;6.60;99.90
33460;DHT22;19795;53.160;6.612;2023-02-13T08:56:41;6.60;99.90
33460;DHT22;19795;53.160;6.612;2023-02-13T08:59:07;6.70;99.90
33460;DHT22;19795;53.160;6.612;2023-02-13T09:01:33;6.70;99.90
33460;DHT22;19795;53.160;6.612;2023-02-13T09:03:59;6.70;99.90
33460;DHT22;19795;53.160;6.612;2023-02-13T09:06:25;6.70;99.90
33460;DHT22;19795;53.160;6.612;2023-02-13T09:08:52;6.70;99.90
33460;DHT22;19795;53.160;6.612;2023-02-13T09:11:19;6.60;99.90
33460;DHT22;19795;53.160;6.612;2023-02-13T09:13:48;6.70;99.90
33460;DHT22;19795;53.160;6.612;2023-02-13T09:16:13;6.70;99.90
33460;DHT22;19795;53.160;6.612;2023-02-13T09:18:39;6.70;99.90
33460;DHT22;19795;53.160;6.612;2023-02-13T09:21:07;6.70;99.90
33460;DHT22;19795;53.160;6.612;2023-02-13T09:23:35;6.70;99.90
33460;DHT22;19795;53.160;6.612;2023-02-13T09:26:03;6.70;99.90
33460;DHT22;19795;53.160;6.612;2023-02-13T09:28:31;6.80;99.90
33460;DHT22;19795;53.160;6.612;2023-02-13T09:30:57;6.80;99.90
33460;DHT22;19795;53.160;6.612;2023-02-13T09:33:23;6.80;99.90
33460;DHT22;19795;53.160;6.612;2023-02-13T09:35:49;6.80;99.90
33460;DHT22;19795;53.160;6.612;2023-02-13T09:38:15;6.70;99.90
33460;DHT22;19795;53.160;6.612;2023-02-13T09:40:46;6.80;99.90
33460;DHT22;19795;53.160;6.612;2023-02-13T09:44:01;6.90;99.90
33460;DHT22;19795;53.160;6.612;2023-02-13T09:46:32;6.80;99.90
33460;DHT22;19795;53.160;6.612;2023-02-13T09:48:58;6.90;99.90
33460;DHT22;19795;53.160;6.612;2023-02-13T09:51:26;7.00;99.90
33460;DHT22;19795;53.160;6.612;2023-02-13T09:53:59;7.00;99.90
33460;DHT22;19795;53.160;6.612;2023-02-13T09:56:55;7.00;99.90
33460;DHT22;19795;53.160;6.612;2023-02-13T10:12:12;7.20;99.90
33460;DHT22;19795;53.160;6.612;2023-02-13T10:15:20;7.20;99.90
33460;DHT22;19795;53.160;6.612;2023-02-13T10:17:55;7.20;99.90
33460;DHT22;19795;53.160;6.612;2023-02-13T10:20:36;7.20;99.90
33460;DHT22;19795;53.160;6.612;2023-02-13T10:23:32;7.30;99.90
33460;DHT22;19795;53.160;6.612;2023-02-13T10:26:21;7.40;99.90
33460;DHT22;19795;53.160;6.612;2023-02-13T10:28:57;7.50;99.90
33460;DHT22;19795;53.160;6.612;2023-02-13T10:31:46;7.40;99.90
33460;DHT22;19795;53.160;6.612;2023-02-13T10:34:16;7.30;99.90
33460;DHT22;19795;53.160;6.612;2023-02-13T10:36:46;7.30;99.90
33460;DHT22;19795;53.160;6.612;2023-02-13T10:39:22;7.40;99.90
33460;DHT22;19795;53.160;6.612;2023-02-13T10:41:54;7.50;99.90
33460;DHT22;19795;53.160;6.612;2023-02-13T10:47:21;7.50;99.90
33460;DHT22;19795;53.160;6.612;2023-02-13T10:52:54;7.50;99.90
33460;DHT22;19795;53.160;6.612;2023-02-13T11:01:05;7.50;99.90
33460;DHT22;19795;53.160;6.612;2023-02-13T11:03:32;7.50;99.90
33460;DHT22;19795;53.160;6.612;2023-02-13T11:05:58;7.50;99.90
33460;DHT22;19795;53.160;6.612;2023-02-13T11:10:51;7.60;99.90
33460;DHT22;19795;53.160;6.612;2023-02-13T11:13:22;7.60;99.90
33460;DHT22;19795;53.160;6.612;2023-02-13T11:16:08;7.60;99.90
33460;DHT22;19795;53.160;6.612;2023-02-13T11:18:48;7.50;99.90
33460;DHT22;19795;53.160;6.612;2023-02-13T11:21:20;7.60;99.90
33460;DHT22;19795;53.160;6.612;2023-02-13T11:23:51;7.60;99.90
33460;DHT22;19795;53.160;6.612;2023-02-13T11:26:39;7.60;99.90
33460;DHT22;19795;53.160;6.612;2023-02-13T11:29:29;7.70;99.90
33460;DHT22;19795;53.160;6.612;2023-02-13T11:32:09;7.80;99.90
33460;DHT22;19795;53.160;6.612;2023-02-13T11:34:41;7.80;99.90
33460;DHT22;19795;53.160;6.612;2023-02-13T11:37:28;7.90;99.90
33460;DHT22;19795;53.160;6.612;2023-02-13T11:39:56;7.80;99.90
33460;DHT22;19795;53.160;6.612;2023-02-13T11:42:31;7.80;99.90
33460;DHT22;19795;53.160;6.612;2023-02-13T11:45:20;7.90;99.90
33460;DHT22;19795;53.160;6.612;2023-02-13T11:47:46;7.90;99.90
33460;DHT22;19795;53.160;6.612;2023-02-13T11:50:32;7.90;99.90
33460;DHT22;19795;53.160;6.612;2023-02-13T11:53:07;7.80;99.90
33460;DHT22;19795;53.160;6.612;2023-02-13T11:55:38;7.90;99.90
33460;DHT22;19795;53.160;6.612;2023-02-13T12:00:38;8.20;99.90
33460;DHT22;19795;53.160;6.612;2023-02-13T12:08:36;8.20;99.90
33460;DHT22;19795;53.160;6.612;2023-02-13T12:13:38;8.30;99.90
33460;DHT22;19795;53.160;6.612;2023-02-13T12:16:31;8.30;99.90
33460;DHT22;19795;53.160;6.612;2023-02-13T12:19:04;8.40;99.90
33460;DHT22;19795;53.160;6.612;2023-02-13T12:38:44;8.20;99.90
33460;DHT22;19795;53.160;6.612;2023-02-13T12:47:45;8.30;99.90
33460;DHT22;19795;53.160;6.612;2023-02-13T12:50:02;8.60;99.90
33460;DHT22;19795;53.160;6.612;2023-02-13T12:58:06;8.20;99.90
33460;DHT22;19795;53.160;6.612;2023-02-13T13:06:25;8.50;99.90
33460;DHT22;19795;53.160;6.612;2023-02-13T13:25:29;8.60;99.90
33460;DHT22;19795;53.160;6.612;2023-02-13T13:28:13;8.40;99.90
33460;DHT22;19795;53.160;6.612;2023-02-13T13:30:40;8.60;99.90
33460;DHT22;19795;53.160;6.612;2023-02-13T13:33:18;8.70;99.90
33460;DHT22;19795;53.160;6.612;2023-02-13T13:41:37;8.80;99.90
33460;DHT22;19795;53.160;6.612;2023-02-13T13:44:19;8.90;99.90
33460;DHT22;19795;53.160;6.612;2023-02-13T13:49:47;8.80;99.90
33460;DHT22;19795;53.160;6.612;2023-02-13T13:52:27;8.80;99.90
33460;DHT22;19795;53.160;6.612;2023-02-13T13:54:55;9.00;99.90
33460;DHT22;19795;53.160;6.612;2023-02-13T13:57:26;8.90;99.90
33460;DHT22;19795;53.160;6.612;2023-02-13T13:59:58;8.80;99.90
33460;DHT22;19795;53.160;6.612;2023-02-13T14:07:24;8.80;99.90
33460;DHT22;19795;53.160;6.612;2023-02-13T14:09:50;9.00;99.90
33460;DHT22;19795;53.160;6.612;2023-02-13T14:14:57;9.00;99.90
33460;DHT22;19795;53.160;6.612;2023-02-13T14:25:48;8.90;99.90
33460;DHT22;19795;53.160;6.612;2023-02-13T14:28:23;8.90;99.90
33460;DHT22;19795;53.160;6.612;2023-02-13T14:30:50;8.80;99.90
33460;DHT22;19795;53.160;6.612;2023-02-13T14:33:28;8.80;99.90
33460;DHT22;19795;53.160;6.612;2023-02-13T14:36:07;8.80;99.90
33460;DHT22;19795;53.160;6.612;2023-02-13T14:38:34;8.80;99.90
33460;DHT22;19795;53.160;6.612;2023-02-13T14:41:00;8.80;99.90
33460;DHT22;19795;53.160;6.612;2023-02-13T14:43:32;8.90;99.90
33460;DHT22;19795;53.160;6.612;2023-02-13T14:46:08;8.80;99.90
33460;DHT22;19795;53.160;6.612;2023-02-13T14:48:49;8.70;99.90
33460;DHT22;19795;53.160;6.612;2023-02-13T14:51:20;8.70;99.90
33460;DHT22;19795;53.160;6.612;2023-02-13T14:53:58;8.70;99.90
33460;DHT22;19795;53.160;6.612;2023-02-13T14:56:26;8.70;99.90
33460;DHT22;19795;53.160;6.612;2023-02-13T15:01:59;8.80;99.90
33460;DHT22;19795;53.160;6.612;2023-02-13T15:04:37;8.80;99.90
33460;DHT22;19795;53.160;6.612;2023-02-13T15:07:06;8.70;99.90
33460;DHT22;19795;53.160;6.612;2023-02-13T15:09:39;8.80;99.90
33460;DHT22;19795;53.160;6.612;2023-02-13T15:12:33;8.80;99.90
33460;DHT22;19795;53.160;6.612;2023-02-13T15:15:00;8.90;99.90
33460;DHT22;19795;53.160;6.612;2023-02-13T15:17:33;8.80;99.90
33460;DHT22;19795;53.160;6.612;2023-02-13T15:20:21;8.80;99.90
33460;DHT22;19795;53.160;6.612;2023-02-13T15:22:48;8.80;99.90
33460;DHT22;19795;53.160;6.612;2023-02-13T15:27:54;8.80;99.90
33460;DHT22;19795;53.160;6.612;2023-02-13T15:30:35;8.80;99.90
33460;DHT22;19795;53.160;6.612;2023-02-13T15:33:01;8.70;99.90
33460;DHT22;19795;53.160;6.612;2023-02-13T15:35:33;8.70;99.90
33460;DHT22;19795;53.160;6.612;2023-02-13T15:37:59;8.70;99.90
33460;DHT22;19795;53.160;6.612;2023-02-13T15:40:42;8.70;99.90
33460;DHT22;19795;53.160;6.612;2023-02-13T15:43:42;8.70;99.90
33460;DHT22;19795;53.160;6.612;2023-02-13T15:46:18;8.60;99.90
33460;DHT22;19795;53.160;6.612;2023-02-13T15:48:45;8.60;99.90
33460;DHT22;19795;53.160;6.612;2023-02-13T15:51:24;8.60;99.90
33460;DHT22;19795;53.160;6.612;2023-02-13T15:53:51;8.60;99.90
33460;DHT22;19795;53.160;6.612;2023-02-13T15:56:17;8.60;99.90
33460;DHT22;19795;53.160;6.612;2023-02-13T15:58:43;8.60;99.90
33460;DHT22;19795;53.160;6.612;2023-02-13T16:01:09;8.50;99.90
33460;DHT22;19795;53.160;6.612;2023-02-13T16:03:35;8.60;99.90
33460;DHT22;19795;53.160;6.612;2023-02-13T16:06:04;8.60;99.90
33460;DHT22;19795;53.160;6.612;2023-02-13T16:08:32;8.60;99.90
33460;DHT22;19795;53.160;6.612;2023-02-13T16:16:26;8.40;99.90
33460;DHT22;19795;53.160;6.612;2023-02-13T16:18:52;8.40;99.90
33460;DHT22;19795;53.160;6.612;2023-02-13T16:21:26;8.30;99.90
33460;DHT22;19795;53.160;6.612;2023-02-13T16:23:59;8.20;99.90
33460;DHT22;19795;53.160;6.612;2023-02-13T16:26:25;8.30;99.90
33460;DHT22;19795;53.160;6.612;2023-02-13T16:28:51;8.30;99.90
33460;DHT22;19795;53.160;6.612;2023-02-13T16:31:17;8.20;99.90
33460;DHT22;19795;53.160;6.612;2023-02-13T16:33:44;8.20;99.90
33460;DHT22;19795;53.160;6.612;2023-02-13T16:38:36;8.00;99.90
33460;DHT22;19795;53.160;6.612;2023-02-13T16:41:28;7.90;99.90
33460;DHT22;19795;53.160;6.612;2023-02-13T16:43:59;7.90;99.90
33460;DHT22;19795;53.160;6.612;2023-02-13T16:46:39;7.80;99.90
33460;DHT22;19795;53.160;6.612;2023-02-13T16:49:26;7.70;99.90
33460;DHT22;19795;53.160;6.612;2023-02-13T16:52:06;7.60;99.90
33460;DHT22;19795;53.160;6.612;2023-02-13T16:54:53;7.60;99.90
33460;DHT22;19795;53.160;6.612;2023-02-13T16:57:25;7.50;99.90
33460;DHT22;19795;53.160;6.612;2023-02-13T17:00:00;7.50;99.90
33460;DHT22;19795;53.160;6.612;2023-02-13T17:02:36;7.30;99.90
33460;DHT22;19795;53.160;6.612;2023-02-13T17:07:39;7.20;99.90
33460;DHT22;19795;53.160;6.612;2023-02-13T17:12:46;7.00;99.90
33460;DHT22;19795;53.160;6.612;2023-02-13T17:15:18;7.00;99.90
33460;DHT22;19795;53.160;6.612;2023-02-13T17:17:45;6.90;99.90
33460;DHT22;19795;53.160;6.612;2023-02-13T17:20:22;6.80;99.90
33460;DHT22;19795;53.160;6.612;2023-02-13T17:22:51;6.80;99.90
33460;DHT22;19795;53.160;6.612;2023-02-13T17:25:21;6.50;99.90
33460;DHT22;19795;53.160;6.612;2023-02-13T17:27:48;6.30;99.90
33460;DHT22;19795;53.160;6.612;2023-02-13T17:30:20;6.20;99.90
33460;DHT22;19795;53.160;6.612;2023-02-13T17:32:47;6.00;99.90
33460;DHT22;19795;53.160;6.612;2023-02-13T17:35:14;5.80;99.90
33460;DHT22;19795;53.160;6.612;2023-02-13T17:37:41;5.70;99.90
33460;DHT22;19795;53.160;6.612;2023-02-13T17:40:14;5.50;99.90
33460;DHT22;19795;53.160;6.612;2023-02-13T17:42:41;5.40;99.90
33460;DHT22;19795;53.160;6.612;2023-02-13T17:45:10;5.30;99.90
33460;DHT22;19795;53.160;6.612;2023-02-13T17:47:37;5.20;99.90
33460;DHT22;19795;53.160;6.612;2023-02-13T17:50:04;5.10;99.90
33460;DHT22;19795;53.160;6.612;2023-02-13T17:52:30;5.00;99.90
33460;DHT22;19795;53.160;6.612;2023-02-13T17:54:55;5.10;99.90
33460;DHT22;19795;53.160;6.612;2023-02-13T17:57:21;4.90;99.90
33460;DHT22;19795;53.160;6.612;2023-02-13T17:59:47;4.90;99.90
33460;DHT22;19795;53.160;6.612;2023-02-13T18:02:15;4.80;99.90
33460;DHT22;19795;53.160;6.612;2023-02-13T18:04:41;4.60;99.90
33460;DHT22;19795;53.160;6.612;2023-02-13T18:07:08;4.50;99.90
33460;DHT22;19795;53.160;6.612;2023-02-13T18:09:34;4.50;99.90
33460;DHT22;19795;53.160;6.612;2023-02-13T18:11:59;4.40;99.90
33460;DHT22;19795;53.160;6.612;2023-02-13T18:14:28;4.30;99.90
33460;DHT22;19795;53.160;6.612;2023-02-13T18:16:54;4.20;99.90
33460;DHT22;19795;53.160;6.612;2023-02-13T18:19:20;4.20;99.90
33460;DHT22;19795;53.160;6.612;2023-02-13T18:21:45;4.10;99.90
33460;DHT22;19795;53.160;6.612;2023-02-13T18:24:11;4.40;99.90
33460;DHT22;19795;53.160;6.612;2023-02-13T18:26:37;4.50;99.90
33460;DHT22;19795;53.160;6.612;2023-02-13T18:29:04;4.50;99.90
33460;DHT22;19795;53.160;6.612;2023-02-13T18:31:29;4.30;99.90
33460;DHT22;19795;53.160;6.612;2023-02-13T18:33:55;4.20;99.90
33460;DHT22;19795;53.160;6.612;2023-02-13T18:36:21;4.10;99.90
33460;DHT22;19795;53.160;6.612;2023-02-13T18:38:46;4.50;99.90
33460;DHT22;19795;53.160;6.612;2023-02-13T18:41:12;4.70;99.90
33460;DHT22;19795;53.160;6.612;2023-02-13T18:43:38;4.60;99.90
33460;DHT22;19795;53.160;6.612;2023-02-13T18:46:04;4.70;99.90
33460;DHT22;19795;53.160;6.612;2023-02-13T18:48:30;4.90;99.90
33460;DHT22;19795;53.160;6.612;2023-02-13T18:50:58;4.80;99.90
33460;DHT22;19795;53.160;6.612;2023-02-13T18:53:25;5.00;99.90
33460;DHT22;19795;53.160;6.612;2023-02-13T18:55:58;4.90;99.90
33460;DHT22;19795;53.160;6.612;2023-02-13T18:58:25;4.90;99.90
33460;DHT22;19795;53.160;6.612;2023-02-13T19:00:50;4.90;99.90
33460;DHT22;19795;53.160;6.612;2023-02-13T19:03:16;5.00;99.90
33460;DHT22;19795;53.160;6.612;2023-02-13T19:05:42;4.90;99.90
33460;DHT22;19795;53.160;6.612;2023-02-13T19:08:07;4.80;99.90
33460;DHT22;19795;53.160;6.612;2023-02-13T19:10:33;5.00;99.90
33460;DHT22;19795;53.160;6.612;2023-02-13T19:13:02;5.00;99.90
33460;DHT22;19795;53.160;6.612;2023-02-13T19:15:27;5.00;99.90
33460;DHT22;19795;53.160;6.612;2023-02-13T19:17:53;4.90;99.90
33460;DHT22;19795;53.160;6.612;2023-02-13T19:20:22;4.80;99.90
33460;DHT22;19795;53.160;6.612;2023-02-13T19:22:48;4.80;99.90
33460;DHT22;19795;53.160;6.612;2023-02-13T19:25:14;4.70;99.90
33460;DHT22;19795;53.160;6.612;2023-02-13T19:27:40;4.80;99.90
33460;DHT22;19795;53.160;6.612;2023-02-13T19:30:08;4.80;99.90
33460;DHT22;19795;53.160;6.612;2023-02-13T19:32:35;4.80;99.90
33460;DHT22;19795;53.160;6.612;2023-02-13T19:35:00;4.80;99.90
33460;DHT22;19795;53.160;6.612;2023-02-13T19:37:26;4.70;99.90
33460;DHT22;19795;53.160;6.612;2023-02-13T19:39:52;4.60;99.90
33460;DHT22;19795;53.160;6.612;2023-02-13T19:42:18;4.60;99.90
33460;DHT22;19795;53.160;6.612;2023-02-13T19:44:43;4.40;99.90
33460;DHT22;19795;53.160;6.612;2023-02-13T19:47:09;4.30;99.90
33460;DHT22;19795;53.160;6.612;2023-02-13T19:49:35;4.10;99.90
33460;DHT22;19795;53.160;6.612;2023-02-13T19:52:00;4.00;99.90
33460;DHT22;19795;53.160;6.612;2023-02-13T19:54:28;4.00;99.90
33460;DHT22;19795;53.160;6.612;2023-02-13T19:56:53;3.90;99.90
33460;DHT22;19795;53.160;6.612;2023-02-13T19:59:25;3.80;99.90
33460;DHT22;19795;53.160;6.612;2023-02-13T20:01:51;3.50;99.90
33460;DHT22;19795;53.160;6.612;2023-02-13T20:04:16;3.40;99.90
33460;DHT22;19795;53.160;6.612;2023-02-13T20:06:42;3.30;99.90
33460;DHT22;19795;53.160;6.612;2023-02-13T20:09:10;3.40;99.90
33460;DHT22;19795;53.160;6.612;2023-02-13T20:11:37;3.10;99.90
33460;DHT22;19795;53.160;6.612;2023-02-13T20:14:04;3.00;99.90
33460;DHT22;19795;53.160;6.612;2023-02-13T20:16:31;3.00;99.90
33460;DHT22;19795;53.160;6.612;2023-02-13T20:19:05;2.90;99.90
33460;DHT22;19795;53.160;6.612;2023-02-13T20:21:34;2.80;99.90
33460;DHT22;19795;53.160;6.612;2023-02-13T20:24:00;2.90;99.90
33460;DHT22;19795;53.160;6.612;2023-02-13T20:26:27;3.00;99.90
33460;DHT22;19795;53.160;6.612;2023-02-13T20:28:55;3.20;99.90
33460;DHT22;19795;53.160;6.612;2023-02-13T20:31:22;3.20;99.90
33460;DHT22;19795;53.160;6.612;2023-02-13T20:33:49;3.30;99.90
33460;DHT22;19795;53.160;6.612;2023-02-13T20:36:23;3.10;99.90
33460;DHT22;19795;53.160;6.612;2023-02-13T20:38:52;3.10;99.90
33460;DHT22;19795;53.160;6.612;2023-02-13T20:41:20;3.00;99.90
33460;DHT22;19795;53.160;6.612;2023-02-13T20:43:46;3.00;99.90
33460;DHT22;19795;53.160;6.612;2023-02-13T20:46:13;3.10;99.90
33460;DHT22;19795;53.160;6.612;2023-02-13T20:48:41;3.10;99.90
33460;DHT22;19795;53.160;6.612;2023-02-13T20:51:09;3.10;99.90
33460;DHT22;19795;53.160;6.612;2023-02-13T20:53:36;3.00;99.90
33460;DHT22;19795;53.160;6.612;2023-02-13T20:56:12;3.00;99.90
33460;DHT22;19795;53.160;6.612;2023-02-13T20:58:39;3.20;99.90
33460;DHT22;19795;53.160;6.612;2023-02-13T21:01:16;3.10;99.90
33460;DHT22;19795;53.160;6.612;2023-02-13T21:03:42;3.00;99.90
33460;DHT22;19795;53.160;6.612;2023-02-13T21:06:09;2.90;99.90
33460;DHT22;19795;53.160;6.612;2023-02-13T21:08:35;2.80;99.90
33460;DHT22;19795;53.160;6.612;2023-02-13T21:11:05;2.70;99.90
33460;DHT22;19795;53.160;6.612;2023-02-13T21:13:32;2.60;99.90
33460;DHT22;19795;53.160;6.612;2023-02-13T21:16:14;2.50;99.90
33460;DHT22;19795;53.160;6.612;2023-02-13T21:18:41;2.40;99.90
33460;DHT22;19795;53.160;6.612;2023-02-13T21:21:08;2.30;99.90
33460;DHT22;19795;53.160;6.612;2023-02-13T21:23:34;2.30;99.90
33460;DHT22;19795;53.160;6.612;2023-02-13T21:26:12;2.40;99.90
33460;DHT22;19795;53.160;6.612;2023-02-13T21:28:39;2.30;99.90
33460;DHT22;19795;53.160;6.612;2023-02-13T21:31:07;2.30;99.90
33460;DHT22;19795;53.160;6.612;2023-02-13T21:33:33;2.20;99.90
33460;DHT22;19795;53.160;6.612;2023-02-13T21:36:00;2.10;99.90
33460;DHT22;19795;53.160;6.612;2023-02-13T21:38:26;2.50;99.90
33460;DHT22;19795;53.160;6.612;2023-02-13T21:40:54;2.20;99.90
33460;DHT22;19795;53.160;6.612;2023-02-13T21:43:21;2.60;99.90
33460;DHT22;19795;53.160;6.612;2023-02-13T21:45:47;2.40;99.90
33460;DHT22;19795;53.160;6.612;2023-02-13T21:48:12;2.60;99.90
33460;DHT22;19795;53.160;6.612;2023-02-13T21:50:38;2.60;99.90
33460;DHT22;19795;53.160;6.612;2023-02-13T21:53:04;2.40;99.90
33460;DHT22;19795;53.160;6.612;2023-02-13T21:55:29;2.30;99.90
33460;DHT22;19795;53.160;6.612;2023-02-13T21:57:56;2.40;99.90
33460;DHT22;19795;53.160;6.612;2023-02-13T22:00:22;2.30;99.90
33460;DHT22;19795;53.160;6.612;2023-02-13T22:02:48;2.30;99.90
33460;DHT22;19795;53.160;6.612;2023-02-13T22:05:13;2.40;99.90
33460;DHT22;19795;53.160;6.612;2023-02-13T22:07:39;2.20;99.90
33460;DHT22;19795;53.160;6.612;2023-02-13T22:10:23;2.20;99.90
33460;DHT22;19795;53.160;6.612;2023-02-13T22:12:52;2.10;99.90
33460;DHT22;19795;53.160;6.612;2023-02-13T22:15:18;2.10;99.90
33460;DHT22;19795;53.160;6.612;2023-02-13T22:17:44;2.10;99.90
33460;DHT22;19795;53.160;6.612;2023-02-13T22:20:10;2.10;99.90
33460;DHT22;19795;53.160;6.612;2023-02-13T22:22:36;2.00;99.90
33460;DHT22;19795;53.160;6.612;2023-02-13T22:25:01;2.00;99.90
33460;DHT22;19795;53.160;6.612;2023-02-13T22:27:27;2.00;99.90
33460;DHT22;19795;53.160;6.612;2023-02-13T22:29:53;2.00;99.90
33460;DHT22;19795;53.160;6.612;2023-02-13T22:32:18;1.90;99.90
33460;DHT22;19795;53.160;6.612;2023-02-13T22:34:44;1.80;99.90
33460;DHT22;19795;53.160;6.612;2023-02-13T22:37:10;1.80;99.90
